createdAt,value
2023-04-01T00:00:33.868Z,98979.34
2023-04-01T00:03:06.122Z,98968.81
2023-04-01T00:05:38.501Z,98971.44
2023-04-01T00:08:10.476Z,98968.78
2023-04-01T00:10:43.840Z,98974.94
2023-04-01T00:13:16.531Z,98974.94
2023-04-01T00:15:49.012Z,98982.84
2023-04-01T00:18:21.305Z,98974.09
2023-04-01T00:20:54.217Z,98980.22
2023-04-01T00:23:27.659Z,98978.44
2023-04-01T00:26:02.770Z,98977.59
2023-04-01T00:28:35.923Z,98981.97
2023-04-01T00:31:09.704Z,98985.47
2023-04-01T00:33:42.392Z,98971.44
2023-04-01T00:36:19.700Z,98985.44
2023-04-01T00:38:52.769Z,98984.59
2023-04-01T00:41:24.772Z,98994.19
2023-04-01T00:44:22.051Z,99003.81
2023-04-01T00:46:54.170Z,98991.56
2023-04-01T00:49:41.391Z,98999.44
2023-04-01T00:52:19.860Z,98995.94
2023-04-01T00:54:59.267Z,99006.47
2023-04-01T00:57:38.545Z,98993.31
2023-04-01T01:00:15.014Z,99010.84
2023-04-01T01:02:48.969Z,99005.59
2023-04-01T01:05:48.577Z,99009.91
2023-04-01T01:08:53.033Z,99016.91
2023-04-01T01:11:43.811Z,99026.56
2023-04-01T01:14:49.418Z,99015.13
2023-04-01T01:17:41.770Z,99024.81
2023-04-01T01:20:40.346Z,99021.28
2023-04-01T01:23:52.989Z,99023.06
2023-04-01T01:27:03.782Z,99031.81
2023-04-01T01:29:38.765Z,99023.97
2023-04-01T01:32:21.730Z,99016.97
2023-04-01T01:35:05.649Z,99024.84
2023-04-01T01:37:40.851Z,99017.84
2023-04-01T01:40:14.889Z,99030.09
2023-04-01T01:42:57.209Z,99022.19
2023-04-01T01:45:33.155Z,99033.59
2023-04-01T01:48:08.027Z,99033.59
2023-04-01T01:50:43.490Z,99036.19
2023-04-01T01:53:15.919Z,99033.56
2023-04-01T01:55:49.026Z,99001.09
2023-04-01T01:58:41.791Z,99053.69
2023-04-01T02:01:20.409Z,99051.97
2023-04-01T02:03:54.173Z,99051.97
2023-04-01T02:06:31.521Z,99056.34
2023-04-01T02:09:11.762Z,99052.84
2023-04-01T02:11:49.966Z,99056.34
2023-04-01T02:14:31.599Z,99044.94
2023-04-01T02:17:13.215Z,99057.22
2023-04-01T02:20:00.333Z,99058.94
2023-04-01T02:22:42.965Z,99068.56
2023-04-01T02:25:23.466Z,99069.44
2023-04-01T02:27:58.561Z,99064.19
2023-04-01T02:30:34.694Z,99068.56
2023-04-01T02:33:07.596Z,99054.53
2023-04-01T02:35:39.772Z,99062.44
2023-04-01T02:38:11.845Z,99065.91
2023-04-01T02:40:58.043Z,99065.06
2023-04-01T02:43:30.038Z,99073.78
2023-04-01T02:46:02.878Z,99067.69
2023-04-01T02:48:35.380Z,99073.78
2023-04-01T02:51:07.348Z,99071.16
2023-04-01T02:53:39.351Z,99076.44
2023-04-01T02:56:11.419Z,99068.53
2023-04-01T02:58:43.333Z,99082.56
2023-04-01T03:01:15.891Z,99077.28
2023-04-01T03:03:47.995Z,99080.78
2023-04-01T03:06:20.038Z,99054.41
2023-04-01T03:08:51.971Z,99086.03
2023-04-01T03:11:24.204Z,99085.09
2023-04-01T03:13:56.191Z,99105.25
2023-04-01T03:16:28.146Z,99098.22
2023-04-01T03:19:02.887Z,99096.47
2023-04-01T03:21:34.838Z,99091.22
2023-04-01T03:24:07.365Z,99089.50
2023-04-01T03:26:39.313Z,99100.00
2023-04-01T03:29:11.254Z,99106.13
2023-04-01T03:31:43.417Z,99102.63
2023-04-01T03:34:15.638Z,99098.19
2023-04-01T03:36:47.583Z,99070.91
2023-04-01T03:39:19.743Z,99106.09
2023-04-01T03:41:51.865Z,99113.09
2023-04-01T03:44:24.011Z,99121.81
2023-04-01T03:46:56.198Z,99120.03
2023-04-01T03:49:28.485Z,99080.47
2023-04-01T03:52:00.586Z,99113.91
2023-04-01T03:54:33.174Z,99127.03
2023-04-01T03:57:05.938Z,99127.06
2023-04-01T03:59:38.043Z,99127.94
2023-04-01T04:02:10.082Z,99131.47
2023-04-01T04:04:42.440Z,99113.91
2023-04-01T04:07:14.603Z,99129.72
2023-04-01T04:09:46.506Z,99125.34
2023-04-01T04:12:18.457Z,99132.34
2023-04-01T04:14:50.582Z,99140.19
2023-04-01T04:17:22.606Z,99134.91
2023-04-01T04:19:54.545Z,99141.94
2023-04-01T04:22:26.504Z,99137.53
2023-04-01T04:24:58.470Z,99145.38
2023-04-01T04:27:30.984Z,99133.97
2023-04-01T04:30:03.788Z,99152.38
2023-04-01T04:32:36.183Z,99154.16
2023-04-01T04:35:08.880Z,99146.22
2023-04-01T04:37:41.190Z,99147.94
2023-04-01T04:40:13.202Z,99168.06
2023-04-01T04:42:45.637Z,99143.41
2023-04-01T04:45:17.602Z,99164.59
2023-04-01T04:47:49.575Z,99132.84
2023-04-01T04:50:22.365Z,99159.19
2023-04-01T04:52:54.477Z,99179.38
2023-04-01T04:55:26.526Z,99171.47
2023-04-01T04:57:58.484Z,99178.47
2023-04-01T05:00:30.680Z,99182.88
2023-04-01T05:03:02.706Z,99187.22
2023-04-01T05:05:35.166Z,99172.28
2023-04-01T05:08:07.389Z,99186.31
2023-04-01T05:10:39.364Z,99181.88
2023-04-01T05:13:11.561Z,99202.00
2023-04-01T05:15:43.658Z,99164.25
2023-04-01T05:18:15.563Z,99199.41
2023-04-01T05:20:55.790Z,99206.41
2023-04-01T05:23:27.735Z,99209.03
2023-04-01T05:26:03.460Z,99204.56
2023-04-01T05:28:35.574Z,99208.09
2023-04-01T05:31:09.441Z,99215.97
2023-04-01T05:33:41.403Z,99224.75
2023-04-01T05:36:16.805Z,99229.97
2023-04-01T05:38:49.067Z,99216.81
2023-04-01T05:41:21.025Z,99230.91
2023-04-01T05:43:52.976Z,99240.53
2023-04-01T05:46:24.969Z,99244.03
2023-04-01T05:48:57.027Z,99243.09
2023-04-01T05:51:28.956Z,99252.75
2023-04-01T05:54:00.932Z,99253.66
2023-04-01T05:56:32.891Z,99261.56
2023-04-01T05:59:04.970Z,99261.53
2023-04-01T06:01:37.060Z,99270.25
2023-04-01T06:04:16.615Z,99271.09
2023-04-01T06:06:48.702Z,99274.59
2023-04-01T06:09:30.288Z,99243.78
2023-04-01T06:12:30.347Z,99282.50
2023-04-01T06:15:39.700Z,99291.22
2023-04-01T06:18:20.598Z,99296.50
2023-04-01T06:21:17.043Z,99296.53
2023-04-01T06:24:18.357Z,99299.09
2023-04-01T06:27:05.827Z,99307.88
2023-04-01T06:30:08.164Z,99297.34
2023-04-01T06:33:05.527Z,99310.50
2023-04-01T06:35:51.669Z,99312.25
2023-04-01T06:38:36.111Z,99312.22
2023-04-01T06:41:20.192Z,99312.28
2023-04-01T06:44:22.392Z,99329.75
2023-04-01T06:47:17.696Z,99325.41
2023-04-01T06:50:30.266Z,99328.84
2023-04-01T06:53:14.105Z,99341.19
2023-04-01T06:56:00.667Z,99337.66
2023-04-01T06:58:45.446Z,99339.47
2023-04-01T07:01:33.541Z,99342.09
2023-04-01T07:04:17.882Z,99349.16
2023-04-01T07:06:58.665Z,99350.09
2023-04-01T07:09:40.841Z,99358.94
2023-04-01T07:12:37.254Z,99359.81
2023-04-01T07:15:36.454Z,99359.81
2023-04-01T07:18:29.350Z,99359.84
2023-04-01T07:21:03.524Z,99370.41
2023-04-01T07:23:45.756Z,99351.88
2023-04-01T07:26:24.939Z,99382.72
2023-04-01T07:28:58.715Z,99385.38
2023-04-01T07:32:08.360Z,99384.47
2023-04-01T07:34:58.202Z,99393.22
2023-04-01T07:37:52.923Z,99395.84
2023-04-01T07:40:54.462Z,99390.63
2023-04-01T07:43:39.602Z,99401.13
2023-04-01T07:46:39.490Z,99409.00
2023-04-01T07:49:43.001Z,99408.16
2023-04-01T07:52:56.064Z,99408.16
2023-04-01T07:56:06.972Z,99420.44
2023-04-01T07:59:14.951Z,99422.25
2023-04-01T08:02:08.725Z,99424.84
2023-04-01T08:04:58.900Z,99414.25
2023-04-01T08:07:53.744Z,99434.47
2023-04-01T08:10:56.524Z,99437.03
2023-04-01T08:13:54.510Z,99408.00
2023-04-01T08:17:11.096Z,99451.19
2023-04-01T08:20:24.200Z,99462.66
2023-04-01T08:23:45.851Z,99457.50
2023-04-01T08:26:27.199Z,99457.63
2023-04-01T08:29:10.400Z,99467.31
2023-04-01T08:31:52.516Z,99468.19
2023-04-01T08:34:37.605Z,99462.00
2023-04-01T08:37:21.371Z,99464.66
2023-04-01T08:40:19.177Z,99476.03
2023-04-01T08:43:12.599Z,99479.50
2023-04-01T08:45:54.209Z,99487.44
2023-04-01T08:49:07.569Z,99492.59
2023-04-01T08:52:03.939Z,99494.41
2023-04-01T08:55:16.584Z,99494.44
2023-04-01T08:58:28.425Z,99504.91
2023-04-01T09:01:27.247Z,99518.13
2023-04-01T09:04:26.134Z,99508.47
2023-04-01T09:07:32.623Z,99517.31
2023-04-01T09:10:57.828Z,99522.59
2023-04-01T09:14:00.528Z,99527.03
2023-04-01T09:16:36.803Z,99530.59
2023-04-01T09:19:47.208Z,99531.44
2023-04-01T09:22:58.301Z,99535.84
2023-04-01T09:26:08.619Z,99532.31
2023-04-01T09:28:49.554Z,99539.38
2023-04-01T09:32:04.535Z,99533.19
2023-04-01T09:34:54.303Z,99546.41
2023-04-01T09:37:48.093Z,99542.84
2023-04-01T09:40:54.845Z,99518.91
2023-04-01T09:44:01.055Z,99552.34
2023-04-01T09:47:14.229Z,99549.63
2023-04-01T09:50:27.528Z,99560.91
2023-04-01T09:53:41.986Z,99568.84
2023-04-01T09:56:50.483Z,99569.72
2023-04-01T10:00:18.264Z,99575.91
2023-04-01T10:03:23.959Z,99584.72
2023-04-01T10:06:58.558Z,99581.13
2023-04-01T10:09:58.032Z,99583.81
2023-04-01T10:13:02.948Z,99588.16
2023-04-01T10:16:12.169Z,99589.09
2023-04-01T10:19:39.539Z,99587.34
2023-04-01T10:22:51.026Z,99601.44
2023-04-01T10:26:16.745Z,99598.84
2023-04-01T10:29:20.172Z,99603.16
2023-04-01T10:32:07.185Z,99603.22
2023-04-01T10:35:30.495Z,99611.97
2023-04-01T10:38:29.464Z,99607.53
2023-04-01T10:41:18.944Z,99611.91
2023-04-01T10:44:33.026Z,99619.81
2023-04-01T10:47:46.586Z,99629.41
2023-04-01T10:51:01.296Z,99619.72
2023-04-01T10:53:58.954Z,99624.94
2023-04-01T10:57:02.195Z,99625.81
2023-04-01T10:59:55.761Z,99630.22
2023-04-01T11:03:09.014Z,99633.72
2023-04-01T11:06:24.808Z,99636.34
2023-04-01T11:09:27.109Z,99632.06
2023-04-01T11:12:42.293Z,99635.56
2023-04-01T11:15:41.155Z,99639.88
2023-04-01T11:19:08.770Z,99652.13
2023-04-01T11:22:14.708Z,99642.44
2023-04-01T11:25:29.064Z,99657.44
2023-04-01T11:28:30.041Z,99653.06
2023-04-01T11:31:18.502Z,99657.47
2023-04-01T11:33:50.391Z,99655.84
2023-04-01T11:37:19.915Z,99664.53
2023-04-01T11:40:30.082Z,99671.53
2023-04-01T11:43:37.115Z,99660.91
2023-04-01T11:46:42.461Z,99675.94
2023-04-01T11:49:38.660Z,99675.16
2023-04-01T11:53:23.402Z,99676.91
2023-04-01T11:56:08.207Z,99682.19
2023-04-01T11:59:11.072Z,99682.19
2023-04-01T12:02:28.734Z,99695.34
2023-04-01T12:05:39.131Z,99704.09
2023-04-01T12:08:39.645Z,99699.66
2023-04-01T12:11:50.932Z,99707.59
2023-04-01T12:15:00.402Z,99713.66
2023-04-01T12:17:53.229Z,99712.81
2023-04-01T12:20:37.331Z,99718.97
2023-04-01T12:23:36.994Z,99717.22
2023-04-01T12:26:26.585Z,99703.09
2023-04-01T12:29:58.604Z,99722.50
2023-04-01T12:33:00.830Z,99729.53
2023-04-01T12:36:11.883Z,99734.72
2023-04-01T12:38:56.451Z,99729.47
2023-04-01T12:41:40.165Z,99737.44
2023-04-01T12:45:06.685Z,99746.16
2023-04-01T12:47:59.703Z,99749.69
2023-04-01T12:50:38.930Z,99740.91
2023-04-01T12:53:59.264Z,99757.63
2023-04-01T12:57:02.958Z,99752.34
2023-04-01T12:59:43.957Z,99753.31
2023-04-01T13:02:39.058Z,99760.28
2023-04-01T13:05:37.256Z,99762.09
2023-04-01T13:08:37.901Z,99764.69
2023-04-01T13:11:37.761Z,99766.53
2023-04-01T13:14:50.792Z,99771.88
2023-04-01T13:18:03.903Z,99777.22
2023-04-01T13:21:00.918Z,99777.28
2023-04-01T13:23:54.877Z,99785.03
2023-04-01T13:27:01.808Z,99779.72
2023-04-01T13:30:09.104Z,99783.16
2023-04-01T13:33:01.819Z,99782.28
2023-04-01T13:36:02.852Z,99796.34
2023-04-01T13:39:10.390Z,99788.50
2023-04-01T13:41:51.789Z,99803.41
2023-04-01T13:44:45.001Z,99802.47
2023-04-01T13:47:41.308Z,99802.50
2023-04-01T13:50:43.405Z,99805.03
2023-04-01T13:53:27.070Z,99810.34
2023-04-01T13:56:07.869Z,99812.13
2023-04-01T13:58:52.309Z,99800.66
2023-04-01T14:01:49.804Z,99817.28
2023-04-01T14:04:54.846Z,99797.78
2023-04-01T14:07:40.702Z,99823.44
2023-04-01T14:10:38.401Z,99831.28
2023-04-01T14:13:48.897Z,99830.25
2023-04-01T14:17:01.134Z,99832.03
2023-04-01T14:20:34.679Z,99835.59
2023-04-01T14:23:09.258Z,99842.63
2023-04-01T14:26:20.142Z,99843.47
2023-04-01T14:29:08.388Z,99859.34
2023-04-01T14:32:22.053Z,99853.16
2023-04-01T14:35:12.411Z,99856.69
2023-04-01T14:38:16.954Z,99855.78
2023-04-01T14:41:07.688Z,99860.19
2023-04-01T14:44:42.290Z,99857.47
2023-04-01T14:47:47.264Z,99861.94
2023-04-01T14:50:25.140Z,99869.06
2023-04-01T14:53:08.949Z,99866.47
2023-04-01T14:55:43.458Z,99877.97
2023-04-01T14:58:22.861Z,99872.69
2023-04-01T15:01:07.094Z,99884.06
2023-04-01T15:03:59.544Z,99877.00
2023-04-01T15:06:58.604Z,99871.59
2023-04-01T15:10:01.069Z,99893.66
2023-04-01T15:13:05.523Z,99886.63
2023-04-01T15:16:20.077Z,99893.63
2023-04-01T15:19:36.838Z,99897.97
2023-04-01T15:22:33.234Z,99898.13
2023-04-01T15:25:36.172Z,99906.78
2023-04-01T15:28:40.507Z,99892.50
2023-04-01T15:31:35.629Z,99908.47
2023-04-01T15:34:38.627Z,99913.66
2023-04-01T15:37:29.450Z,99889.56
2023-04-01T15:40:19.732Z,99930.16
2023-04-01T15:43:23.237Z,99930.16
2023-04-01T15:46:16.556Z,99932.03
2023-04-01T15:49:28.537Z,99925.09
2023-04-01T15:52:48.123Z,99936.41
2023-04-01T15:55:34.311Z,99917.81
2023-04-01T15:58:25.206Z,99943.50
2023-04-01T16:01:09.199Z,99949.66
2023-04-01T16:04:37.514Z,99948.63
2023-04-01T16:07:55.698Z,99952.94
2023-04-01T16:10:53.277Z,99952.13
2023-04-01T16:14:05.000Z,99954.81
2023-04-01T16:16:57.861Z,99959.94
2023-04-01T16:19:55.644Z,99956.38
2023-04-01T16:22:38.412Z,99962.59
2023-04-01T16:25:40.405Z,99963.44
2023-04-01T16:28:37.128Z,99967.84
2023-04-01T16:31:29.726Z,99968.66
2023-04-01T16:34:15.751Z,99964.38
2023-04-01T16:37:01.520Z,99972.22
2023-04-01T16:39:47.589Z,99975.72
2023-04-01T16:42:41.011Z,99972.22
2023-04-01T16:45:35.898Z,99978.22
2023-04-01T16:48:12.661Z,99971.28
2023-04-01T16:51:01.204Z,99977.47
2023-04-01T16:53:50.928Z,99989.00
2023-04-01T16:56:42.359Z,100001.41
2023-04-01T16:59:28.326Z,99996.97
2023-04-01T17:02:09.856Z,100004.97
2023-04-01T17:04:45.565Z,100004.97
2023-04-01T17:07:54.600Z,100011.91
2023-04-01T17:10:33.338Z,100018.00
2023-04-01T17:13:31.809Z,100024.09
2023-04-01T17:16:33.644Z,100027.69
2023-04-01T17:19:23.983Z,100033.91
2023-04-01T17:22:41.635Z,100030.38
2023-04-01T17:25:35.293Z,100039.16
2023-04-01T17:28:52.103Z,100048.91
2023-04-01T17:31:27.002Z,100044.50
2023-04-01T17:34:19.504Z,100059.53
2023-04-01T17:37:13.176Z,100050.78
2023-04-01T17:40:09.598Z,100063.16
2023-04-01T17:42:58.327Z,100067.63
2023-04-01T17:45:49.240Z,100078.19
2023-04-01T17:48:49.471Z,100086.03
2023-04-01T17:52:01.960Z,100098.34
2023-04-01T17:54:54.698Z,100099.28
2023-04-01T17:58:16.607Z,100099.34
2023-04-01T18:01:34.028Z,100068.47
2023-04-01T18:04:43.974Z,100116.16
2023-04-01T18:07:27.600Z,100118.78
2023-04-01T18:10:20.394Z,100131.06
2023-04-01T18:13:08.915Z,100141.63
2023-04-01T18:16:08.137Z,100146.91
2023-04-01T18:19:20.576Z,100145.59
2023-04-01T18:22:00.430Z,100158.38
2023-04-01T18:24:46.233Z,100166.25
2023-04-01T18:27:37.689Z,100162.75
2023-04-01T18:30:31.410Z,100170.69
2023-04-01T18:33:26.868Z,100182.13
2023-04-01T18:36:36.893Z,100186.47
2023-04-01T18:39:13.934Z,100201.47
2023-04-01T18:42:08.331Z,100204.91
2023-04-01T18:44:53.379Z,100210.13
2023-04-01T18:47:44.620Z,100219.66
2023-04-01T18:50:51.820Z,100222.22
2023-04-01T18:53:35.594Z,100233.59
2023-04-01T18:56:16.481Z,100245.78
2023-04-01T18:59:02.891Z,100251.00
2023-04-01T19:02:03.737Z,100256.13
2023-04-01T19:04:50.122Z,100266.72
2023-04-01T19:07:48.344Z,100272.88
2023-04-01T19:10:40.008Z,100281.69
2023-04-01T19:13:38.046Z,100286.06
2023-04-01T19:16:44.802Z,100294.88
2023-04-01T19:19:38.550Z,100302.72
2023-04-01T19:22:51.722Z,100313.94
2023-04-01T19:25:57.855Z,100301.50
2023-04-01T19:29:02.687Z,100324.34
2023-04-01T19:31:59.256Z,100328.78
2023-04-01T19:35:08.156Z,100330.44
2023-04-01T19:37:48.950Z,100329.56
2023-04-01T19:40:44.293Z,100333.00
2023-04-01T19:43:42.620Z,100341.81
2023-04-01T19:46:52.624Z,100347.00
2023-04-01T19:50:00.939Z,100353.97
2023-04-01T19:52:42.248Z,100363.59
2023-04-01T19:55:49.168Z,100368.81
2023-04-01T19:58:46.386Z,100338.41
2023-04-01T20:01:52.177Z,100374.78
2023-04-01T20:04:36.748Z,100387.00
2023-04-01T20:07:28.061Z,100395.69
2023-04-01T20:10:23.474Z,100396.38
2023-04-01T20:13:14.930Z,100365.22
2023-04-01T20:15:59.836Z,100393.53
2023-04-01T20:18:52.951Z,100422.88
2023-04-01T20:21:50.849Z,100430.75
2023-04-01T20:24:32.665Z,100434.28
2023-04-01T20:27:13.756Z,100441.06
2023-04-01T20:30:20.154Z,100445.28
2023-04-01T20:33:21.997Z,100448.59
2023-04-01T20:36:28.241Z,100460.91
2023-04-01T20:39:42.562Z,100468.66
2023-04-01T20:42:58.507Z,100471.22
2023-04-01T20:45:51.722Z,100479.19
2023-04-01T20:49:08.355Z,100486.38
2023-04-01T20:51:59.976Z,100492.72
2023-04-01T20:55:00.399Z,100501.50
2023-04-01T20:57:38.195Z,100507.56
2023-04-01T21:00:38.739Z,100500.22
2023-04-01T21:03:49.484Z,100517.69
2023-04-01T21:06:33.353Z,100512.47
2023-04-01T21:09:20.172Z,100525.59
2023-04-01T21:12:07.749Z,100526.34
2023-04-01T21:15:07.504Z,100538.50
2023-04-01T21:17:59.404Z,100540.22
2023-04-01T21:21:08.016Z,100544.38
2023-04-01T21:24:07.687Z,100558.72
2023-04-01T21:26:55.045Z,100562.94
2023-04-01T21:30:04.739Z,100576.19
2023-04-01T21:32:58.308Z,100576.19
2023-04-01T21:36:00.566Z,100592.22
2023-04-01T21:39:03.501Z,100597.72
2023-04-01T21:42:19.739Z,100597.88
2023-04-01T21:45:24.323Z,100608.09
2023-04-01T21:48:18.822Z,100615.09
2023-04-01T21:51:31.003Z,100621.91
2023-04-01T21:54:20.836Z,100622.72
2023-04-01T21:57:19.778Z,100629.78
2023-04-01T22:00:21.328Z,100633.13
2023-04-01T22:03:30.293Z,100634.03
2023-04-01T22:06:25.157Z,100652.41
2023-04-01T22:09:26.054Z,100654.06
2023-04-01T22:12:24.814Z,100669.75
2023-04-01T22:15:18.202Z,100663.38
2023-04-01T22:18:23.719Z,100665.75
2023-04-01T22:21:24.405Z,100664.56
2023-04-01T22:24:14.163Z,100678.09
2023-04-01T22:27:04.098Z,100684.31
2023-04-01T22:30:19.637Z,100683.25
2023-04-01T22:33:12.376Z,100697.44
2023-04-01T22:36:04.111Z,100702.56
2023-04-01T22:38:57.004Z,100708.56
2023-04-01T22:42:05.948Z,100711.75
2023-04-01T22:45:11.845Z,100713.41
2023-04-01T22:48:34.037Z,100719.44
2023-04-01T22:51:42.466Z,100728.25
2023-04-01T22:54:32.094Z,100734.22
2023-04-01T22:57:51.386Z,100733.00
2023-04-01T23:00:38.787Z,100746.03
2023-04-01T23:03:16.266Z,100746.13
2023-04-01T23:05:58.232Z,100751.28
2023-04-01T23:09:07.272Z,100751.06
2023-04-01T23:12:14.018Z,100759.88
2023-04-01T23:14:52.161Z,100766.41
2023-04-01T23:17:36.246Z,100772.66
2023-04-01T23:20:25.661Z,100768.94
2023-04-01T23:23:21.877Z,100764.09
2023-04-01T23:26:16.055Z,100777.31
2023-04-01T23:28:51.768Z,100792.47
2023-04-01T23:31:42.438Z,100795.19
2023-04-01T23:34:14.369Z,100798.63
2023-04-01T23:36:57.485Z,100810.00
2023-04-01T23:39:47.455Z,100808.94
2023-04-01T23:42:27.248Z,100812.47
2023-04-01T23:45:07.024Z,100809.59
2023-04-01T23:47:42.483Z,100783.59
2023-04-01T23:50:25.396Z,100823.56
2023-04-01T23:53:12.117Z,100806.13
2023-04-01T23:55:44.491Z,100833.66
2023-04-01T23:58:29.208Z,100852.25
